sensor_id;sensor_type;location;lat;lon;timestamp;P1;durP1;ratioP1;P2;durP2;ratioP2
37895;SDS011;23733;53.254;10.430;2023-06-14T00:00:52;7.30;;;2.70;;
37895;SDS011;23733;53.254;10.430;2023-06-14T00:03:18;8.77;;;2.93;;
37895;SDS011;23733;53.254;10.430;2023-06-14T00:05:45;6.27;;;2.90;;
37895;SDS011;23733;53.254;10.430;2023-06-14T00:08:12;4.30;;;2.40;;
37895;SDS011;23733;53.254;10.430;2023-06-14T00:10:38;9.37;;;2.77;;
37895;SDS011;23733;53.254;10.430;2023-06-14T00:13:10;5.43;;;2.63;;
37895;SDS011;23733;53.254;10.430;2023-06-14T00:15:36;3.27;;;2.43;;
37895;SDS011;23733;53.254;10.430;2023-06-14T00:18:02;10.70;;;3.00;;
37895;SDS011;23733;53.254;10.430;2023-06-14T00:20:29;4.83;;;2.70;;
37895;SDS011;23733;53.254;10.430;2023-06-14T00:22:58;5.43;;;2.93;;
37895;SDS011;23733;53.254;10.430;2023-06-14T00:25:25;3.53;;;2.50;;
37895;SDS011;23733;53.254;10.430;2023-06-14T00:27:52;7.37;;;2.97;;
37895;SDS011;23733;53.254;10.430;2023-06-14T00:30:18;9.73;;;3.43;;
37895;SDS011;23733;53.254;10.430;2023-06-14T00:32:45;4.63;;;2.63;;
37895;SDS011;23733;53.254;10.430;2023-06-14T00:35:11;6.73;;;2.93;;
37895;SDS011;23733;53.254;10.430;2023-06-14T00:37:38;9.10;;;3.13;;
37895;SDS011;23733;53.254;10.430;2023-06-14T00:40:06;5.13;;;2.53;;
37895;SDS011;23733;53.254;10.430;2023-06-14T00:42:32;6.13;;;2.53;;
37895;SDS011;23733;53.254;10.430;2023-06-14T00:44:59;8.73;;;2.80;;
37895;SDS011;23733;53.254;10.430;2023-06-14T00:47:26;6.60;;;2.50;;
37895;SDS011;23733;53.254;10.430;2023-06-14T00:49:53;5.40;;;2.67;;
37895;SDS011;23733;53.254;10.430;2023-06-14T00:52:20;5.07;;;2.80;;
37895;SDS011;23733;53.254;10.430;2023-06-14T00:54:49;3.37;;;2.50;;
37895;SDS011;23733;53.254;10.430;2023-06-14T00:57:15;7.13;;;2.80;;
37895;SDS011;23733;53.254;10.430;2023-06-14T00:59:43;11.23;;;3.00;;
37895;SDS011;23733;53.254;10.430;2023-06-14T01:02:11;5.83;;;2.80;;
37895;SDS011;23733;53.254;10.430;2023-06-14T01:04:40;5.97;;;2.83;;
37895;SDS011;23733;53.254;10.430;2023-06-14T01:12:46;4.50;;;2.63;;
37895;SDS011;23733;53.254;10.430;2023-06-14T01:15:21;5.93;;;2.77;;
37895;SDS011;23733;53.254;10.430;2023-06-14T01:17:48;7.53;;;2.50;;
37895;SDS011;23733;53.254;10.430;2023-06-14T01:20:17;5.43;;;2.80;;
37895;SDS011;23733;53.254;10.430;2023-06-14T01:22:54;6.17;;;2.83;;
37895;SDS011;23733;53.254;10.430;2023-06-14T01:25:21;9.00;;;2.97;;
37895;SDS011;23733;53.254;10.430;2023-06-14T01:27:55;3.60;;;2.50;;
37895;SDS011;23733;53.254;10.430;2023-06-14T01:30:26;5.67;;;2.80;;
37895;SDS011;23733;53.254;10.430;2023-06-14T01:32:53;5.13;;;2.50;;
37895;SDS011;23733;53.254;10.430;2023-06-14T01:35:21;4.60;;;2.70;;
37895;SDS011;23733;53.254;10.430;2023-06-14T01:37:48;6.57;;;2.60;;
37895;SDS011;23733;53.254;10.430;2023-06-14T01:40:15;4.50;;;2.60;;
37895;SDS011;23733;53.254;10.430;2023-06-14T01:42:42;5.53;;;2.70;;
37895;SDS011;23733;53.254;10.430;2023-06-14T01:45:11;6.50;;;3.00;;
37895;SDS011;23733;53.254;10.430;2023-06-14T01:47:37;4.90;;;2.90;;
37895;SDS011;23733;53.254;10.430;2023-06-14T01:50:05;6.90;;;3.23;;
37895;SDS011;23733;53.254;10.430;2023-06-14T01:52:31;6.33;;;2.63;;
37895;SDS011;23733;53.254;10.430;2023-06-14T01:54:57;5.33;;;2.63;;
37895;SDS011;23733;53.254;10.430;2023-06-14T01:57:24;7.03;;;3.10;;
37895;SDS011;23733;53.254;10.430;2023-06-14T01:59:52;11.17;;;2.70;;
37895;SDS011;23733;53.254;10.430;2023-06-14T02:02:18;4.53;;;2.70;;
37895;SDS011;23733;53.254;10.430;2023-06-14T02:04:44;5.00;;;2.90;;
37895;SDS011;23733;53.254;10.430;2023-06-14T02:07:13;4.73;;;2.43;;
37895;SDS011;23733;53.254;10.430;2023-06-14T02:09:40;5.73;;;2.57;;
37895;SDS011;23733;53.254;10.430;2023-06-14T02:12:06;5.63;;;2.57;;
37895;SDS011;23733;53.254;10.430;2023-06-14T02:14:33;4.73;;;3.00;;
37895;SDS011;23733;53.254;10.430;2023-06-14T02:16:59;5.07;;;3.13;;
37895;SDS011;23733;53.254;10.430;2023-06-14T02:19:26;8.07;;;2.70;;
37895;SDS011;23733;53.254;10.430;2023-06-14T02:21:52;3.93;;;2.23;;
37895;SDS011;23733;53.254;10.430;2023-06-14T02:24:18;8.67;;;3.07;;
37895;SDS011;23733;53.254;10.430;2023-06-14T02:26:45;5.37;;;2.60;;
37895;SDS011;23733;53.254;10.430;2023-06-14T02:29:11;6.27;;;2.60;;
37895;SDS011;23733;53.254;10.430;2023-06-14T02:31:40;8.70;;;2.87;;
37895;SDS011;23733;53.254;10.430;2023-06-14T02:34:06;6.03;;;2.80;;
37895;SDS011;23733;53.254;10.430;2023-06-14T02:36:34;10.87;;;2.63;;
37895;SDS011;23733;53.254;10.430;2023-06-14T02:39:00;4.17;;;2.50;;
37895;SDS011;23733;53.254;10.430;2023-06-14T02:41:26;6.93;;;3.27;;
37895;SDS011;23733;53.254;10.430;2023-06-14T02:43:52;5.77;;;3.10;;
37895;SDS011;23733;53.254;10.430;2023-06-14T02:46:19;6.30;;;2.87;;
37895;SDS011;23733;53.254;10.430;2023-06-14T02:48:45;6.90;;;3.00;;
37895;SDS011;23733;53.254;10.430;2023-06-14T02:51:11;4.97;;;2.90;;
37895;SDS011;23733;53.254;10.430;2023-06-14T02:53:38;5.33;;;3.00;;
37895;SDS011;23733;53.254;10.430;2023-06-14T02:56:04;7.07;;;3.10;;
37895;SDS011;23733;53.254;10.430;2023-06-14T02:58:30;4.83;;;2.90;;
37895;SDS011;23733;53.254;10.430;2023-06-14T03:00:56;5.97;;;3.00;;
37895;SDS011;23733;53.254;10.430;2023-06-14T03:03:22;5.47;;;2.70;;
37895;SDS011;23733;53.254;10.430;2023-06-14T03:05:50;5.73;;;2.90;;
37895;SDS011;23733;53.254;10.430;2023-06-14T03:08:16;6.13;;;3.33;;
37895;SDS011;23733;53.254;10.430;2023-06-14T03:10:48;5.93;;;2.77;;
37895;SDS011;23733;53.254;10.430;2023-06-14T03:13:14;4.80;;;3.00;;
37895;SDS011;23733;53.254;10.430;2023-06-14T03:15:44;7.77;;;3.33;;
37895;SDS011;23733;53.254;10.430;2023-06-14T03:18:10;6.33;;;2.90;;
37895;SDS011;23733;53.254;10.430;2023-06-14T03:20:37;3.30;;;2.50;;
37895;SDS011;23733;53.254;10.430;2023-06-14T03:23:04;9.90;;;3.13;;
37895;SDS011;23733;53.254;10.430;2023-06-14T03:25:31;10.60;;;3.57;;
37895;SDS011;23733;53.254;10.430;2023-06-14T03:27:58;6.80;;;2.90;;
37895;SDS011;23733;53.254;10.430;2023-06-14T03:30:24;8.27;;;3.13;;
37895;SDS011;23733;53.254;10.430;2023-06-14T03:32:50;10.10;;;3.00;;
37895;SDS011;23733;53.254;10.430;2023-06-14T03:35:18;7.53;;;3.20;;
37895;SDS011;23733;53.254;10.430;2023-06-14T03:37:45;6.23;;;3.13;;
37895;SDS011;23733;53.254;10.430;2023-06-14T03:40:13;7.43;;;2.93;;
37895;SDS011;23733;53.254;10.430;2023-06-14T03:42:40;7.43;;;3.00;;
37895;SDS011;23733;53.254;10.430;2023-06-14T03:45:06;5.63;;;2.80;;
37895;SDS011;23733;53.254;10.430;2023-06-14T03:47:33;9.30;;;3.00;;
37895;SDS011;23733;53.254;10.430;2023-06-14T03:50:00;9.67;;;3.30;;
37895;SDS011;23733;53.254;10.430;2023-06-14T03:52:27;9.97;;;3.40;;
37895;SDS011;23733;53.254;10.430;2023-06-14T03:54:53;10.13;;;3.10;;
37895;SDS011;23733;53.254;10.430;2023-06-14T03:57:19;7.60;;;3.30;;
37895;SDS011;23733;53.254;10.430;2023-06-14T03:59:48;8.10;;;3.37;;
37895;SDS011;23733;53.254;10.430;2023-06-14T04:02:14;8.50;;;3.47;;
37895;SDS011;23733;53.254;10.430;2023-06-14T04:04:43;7.73;;;3.10;;
37895;SDS011;23733;53.254;10.430;2023-06-14T04:07:11;8.90;;;3.30;;
37895;SDS011;23733;53.254;10.430;2023-06-14T04:09:39;6.93;;;3.67;;
37895;SDS011;23733;53.254;10.430;2023-06-14T04:12:06;4.77;;;3.17;;
37895;SDS011;23733;53.254;10.430;2023-06-14T04:14:34;5.50;;;3.33;;
37895;SDS011;23733;53.254;10.430;2023-06-14T04:17:00;5.83;;;3.40;;
37895;SDS011;23733;53.254;10.430;2023-06-14T04:19:26;9.40;;;3.80;;
37895;SDS011;23733;53.254;10.430;2023-06-14T04:21:52;10.87;;;3.60;;
37895;SDS011;23733;53.254;10.430;2023-06-14T04:24:18;8.10;;;3.47;;
37895;SDS011;23733;53.254;10.430;2023-06-14T04:26:44;6.37;;;3.47;;
37895;SDS011;23733;53.254;10.430;2023-06-14T04:29:13;5.00;;;3.43;;
37895;SDS011;23733;53.254;10.430;2023-06-14T04:31:44;7.80;;;3.50;;
37895;SDS011;23733;53.254;10.430;2023-06-14T04:34:11;9.47;;;3.63;;
37895;SDS011;23733;53.254;10.430;2023-06-14T04:36:42;10.63;;;4.07;;
37895;SDS011;23733;53.254;10.430;2023-06-14T04:39:15;9.30;;;3.97;;
37895;SDS011;23733;53.254;10.430;2023-06-14T04:41:43;5.93;;;3.70;;
37895;SDS011;23733;53.254;10.430;2023-06-14T04:44:09;5.97;;;3.30;;
37895;SDS011;23733;53.254;10.430;2023-06-14T04:46:36;8.00;;;3.97;;
37895;SDS011;23733;53.254;10.430;2023-06-14T04:49:12;8.57;;;3.90;;
37895;SDS011;23733;53.254;10.430;2023-06-14T04:51:41;6.93;;;3.70;;
37895;SDS011;23733;53.254;10.430;2023-06-14T04:54:08;8.20;;;4.10;;
37895;SDS011;23733;53.254;10.430;2023-06-14T04:56:43;7.53;;;4.10;;
37895;SDS011;23733;53.254;10.430;2023-06-14T04:59:11;14.60;;;4.17;;
37895;SDS011;23733;53.254;10.430;2023-06-14T05:01:38;11.87;;;3.80;;
37895;SDS011;23733;53.254;10.430;2023-06-14T05:04:04;8.07;;;3.73;;
37895;SDS011;23733;53.254;10.430;2023-06-14T05:06:30;8.97;;;3.63;;
37895;SDS011;23733;53.254;10.430;2023-06-14T05:08:56;11.50;;;3.87;;
37895;SDS011;23733;53.254;10.430;2023-06-14T05:11:22;9.83;;;3.90;;
37895;SDS011;23733;53.254;10.430;2023-06-14T05:13:52;7.90;;;3.83;;
37895;SDS011;23733;53.254;10.430;2023-06-14T05:16:18;7.00;;;3.70;;
37895;SDS011;23733;53.254;10.430;2023-06-14T05:18:45;6.17;;;3.37;;
37895;SDS011;23733;53.254;10.430;2023-06-14T05:21:12;7.63;;;3.53;;
37895;SDS011;23733;53.254;10.430;2023-06-14T05:23:43;6.40;;;3.10;;
37895;SDS011;23733;53.254;10.430;2023-06-14T05:26:10;7.50;;;3.30;;
37895;SDS011;23733;53.254;10.430;2023-06-14T05:28:36;10.37;;;3.67;;
37895;SDS011;23733;53.254;10.430;2023-06-14T05:31:02;7.03;;;3.57;;
37895;SDS011;23733;53.254;10.430;2023-06-14T05:33:28;7.63;;;3.27;;
37895;SDS011;23733;53.254;10.430;2023-06-14T05:35:54;10.77;;;3.93;;
37895;SDS011;23733;53.254;10.430;2023-06-14T05:38:21;8.90;;;4.13;;
37895;SDS011;23733;53.254;10.430;2023-06-14T05:40:47;8.20;;;3.60;;
37895;SDS011;23733;53.254;10.430;2023-06-14T05:43:13;6.23;;;3.70;;
37895;SDS011;23733;53.254;10.430;2023-06-14T05:45:39;5.93;;;3.37;;
37895;SDS011;23733;53.254;10.430;2023-06-14T05:48:05;5.40;;;3.30;;
37895;SDS011;23733;53.254;10.430;2023-06-14T05:50:31;9.20;;;3.37;;
37895;SDS011;23733;53.254;10.430;2023-06-14T05:52:57;10.93;;;3.80;;
37895;SDS011;23733;53.254;10.430;2023-06-14T05:55:23;7.83;;;3.93;;
37895;SDS011;23733;53.254;10.430;2023-06-14T05:57:49;6.20;;;3.47;;
37895;SDS011;23733;53.254;10.430;2023-06-14T06:00:15;7.40;;;3.10;;
37895;SDS011;23733;53.254;10.430;2023-06-14T06:02:42;6.87;;;3.13;;
37895;SDS011;23733;53.254;10.430;2023-06-14T06:05:09;5.83;;;3.37;;
37895;SDS011;23733;53.254;10.430;2023-06-14T06:07:36;10.93;;;3.70;;
37895;SDS011;23733;53.254;10.430;2023-06-14T06:10:03;9.67;;;3.50;;
37895;SDS011;23733;53.254;10.430;2023-06-14T06:12:30;7.33;;;3.40;;
37895;SDS011;23733;53.254;10.430;2023-06-14T06:14:56;9.37;;;3.40;;
37895;SDS011;23733;53.254;10.430;2023-06-14T06:17:22;5.00;;;2.90;;
37895;SDS011;23733;53.254;10.430;2023-06-14T06:19:49;5.57;;;2.90;;
37895;SDS011;23733;53.254;10.430;2023-06-14T06:22:15;11.07;;;3.30;;
37895;SDS011;23733;53.254;10.430;2023-06-14T06:24:42;9.50;;;3.47;;
37895;SDS011;23733;53.254;10.430;2023-06-14T06:27:08;9.43;;;3.17;;
37895;SDS011;23733;53.254;10.430;2023-06-14T06:29:35;4.53;;;3.00;;
37895;SDS011;23733;53.254;10.430;2023-06-14T06:32:01;6.30;;;3.00;;
37895;SDS011;23733;53.254;10.430;2023-06-14T06:34:28;6.07;;;2.60;;
37895;SDS011;23733;53.254;10.430;2023-06-14T06:36:54;7.83;;;2.87;;
37895;SDS011;23733;53.254;10.430;2023-06-14T06:39:20;6.70;;;2.57;;
37895;SDS011;23733;53.254;10.430;2023-06-14T06:41:46;9.57;;;3.27;;
37895;SDS011;23733;53.254;10.430;2023-06-14T06:44:12;5.07;;;2.90;;
37895;SDS011;23733;53.254;10.430;2023-06-14T06:46:39;5.87;;;3.10;;
37895;SDS011;23733;53.254;10.430;2023-06-14T06:49:06;4.63;;;3.03;;
37895;SDS011;23733;53.254;10.430;2023-06-14T06:51:34;7.60;;;3.20;;
37895;SDS011;23733;53.254;10.430;2023-06-14T06:54:02;6.33;;;3.10;;
37895;SDS011;23733;53.254;10.430;2023-06-14T06:56:28;4.97;;;2.87;;
37895;SDS011;23733;53.254;10.430;2023-06-14T06:58:54;3.87;;;2.50;;
37895;SDS011;23733;53.254;10.430;2023-06-14T07:01:20;6.73;;;2.53;;
37895;SDS011;23733;53.254;10.430;2023-06-14T07:03:46;4.40;;;2.67;;
37895;SDS011;23733;53.254;10.430;2023-06-14T07:06:13;5.80;;;2.73;;
37895;SDS011;23733;53.254;10.430;2023-06-14T07:08:39;3.90;;;2.50;;
37895;SDS011;23733;53.254;10.430;2023-06-14T07:11:05;3.67;;;2.50;;
37895;SDS011;23733;53.254;10.430;2023-06-14T07:13:31;4.60;;;2.70;;
37895;SDS011;23733;53.254;10.430;2023-06-14T07:15:58;3.07;;;2.40;;
37895;SDS011;23733;53.254;10.430;2023-06-14T07:18:26;4.13;;;2.60;;
37895;SDS011;23733;53.254;10.430;2023-06-14T07:20:55;4.90;;;2.37;;
37895;SDS011;23733;53.254;10.430;2023-06-14T07:23:22;3.67;;;2.43;;
37895;SDS011;23733;53.254;10.430;2023-06-14T07:25:49;4.77;;;2.50;;
37895;SDS011;23733;53.254;10.430;2023-06-14T07:28:16;4.63;;;2.10;;
37895;SDS011;23733;53.254;10.430;2023-06-14T07:30:43;3.97;;;2.43;;
37895;SDS011;23733;53.254;10.430;2023-06-14T07:33:09;7.97;;;2.10;;
37895;SDS011;23733;53.254;10.430;2023-06-14T07:35:37;6.40;;;2.03;;
37895;SDS011;23733;53.254;10.430;2023-06-14T07:38:03;6.03;;;2.60;;
37895;SDS011;23733;53.254;10.430;2023-06-14T07:40:29;3.00;;;2.17;;
37895;SDS011;23733;53.254;10.430;2023-06-14T07:42:55;2.97;;;2.30;;
37895;SDS011;23733;53.254;10.430;2023-06-14T07:45:22;3.27;;;2.10;;
37895;SDS011;23733;53.254;10.430;2023-06-14T07:47:48;2.40;;;2.10;;
37895;SDS011;23733;53.254;10.430;2023-06-14T07:50:14;3.17;;;2.00;;
37895;SDS011;23733;53.254;10.430;2023-06-14T07:52:40;4.33;;;2.13;;
37895;SDS011;23733;53.254;10.430;2023-06-14T07:55:07;3.00;;;2.33;;
37895;SDS011;23733;53.254;10.430;2023-06-14T07:57:33;3.30;;;2.27;;
37895;SDS011;23733;53.254;10.430;2023-06-14T08:00:00;3.93;;;2.33;;
37895;SDS011;23733;53.254;10.430;2023-06-14T08:02:27;4.70;;;2.27;;
37895;SDS011;23733;53.254;10.430;2023-06-14T08:04:53;3.33;;;2.30;;
37895;SDS011;23733;53.254;10.430;2023-06-14T08:07:19;2.83;;;2.10;;
37895;SDS011;23733;53.254;10.430;2023-06-14T08:09:45;3.63;;;2.10;;
37895;SDS011;23733;53.254;10.430;2023-06-14T08:12:11;5.07;;;2.50;;
37895;SDS011;23733;53.254;10.430;2023-06-14T08:14:38;4.43;;;2.43;;
37895;SDS011;23733;53.254;10.430;2023-06-14T08:17:05;4.40;;;2.60;;
37895;SDS011;23733;53.254;10.430;2023-06-14T08:19:31;3.97;;;2.60;;
37895;SDS011;23733;53.254;10.430;2023-06-14T08:21:57;4.10;;;2.70;;
37895;SDS011;23733;53.254;10.430;2023-06-14T08:24:23;7.80;;;4.73;;
37895;SDS011;23733;53.254;10.430;2023-06-14T08:26:50;2.97;;;2.50;;
37895;SDS011;23733;53.254;10.430;2023-06-14T08:29:16;7.83;;;2.90;;
37895;SDS011;23733;53.254;10.430;2023-06-14T08:31:42;3.30;;;2.50;;
37895;SDS011;23733;53.254;10.430;2023-06-14T08:34:08;3.93;;;2.27;;
37895;SDS011;23733;53.254;10.430;2023-06-14T08:36:35;6.37;;;2.90;;
37895;SDS011;23733;53.254;10.430;2023-06-14T08:39:01;5.37;;;2.63;;
37895;SDS011;23733;53.254;10.430;2023-06-14T08:41:27;5.67;;;3.17;;
37895;SDS011;23733;53.254;10.430;2023-06-14T08:43:55;5.40;;;2.37;;
37895;SDS011;23733;53.254;10.430;2023-06-14T08:46:21;4.97;;;2.73;;
37895;SDS011;23733;53.254;10.430;2023-06-14T08:48:52;3.87;;;2.50;;
37895;SDS011;23733;53.254;10.430;2023-06-14T08:51:22;3.83;;;2.97;;
37895;SDS011;23733;53.254;10.430;2023-06-14T08:53:55;6.63;;;2.73;;
37895;SDS011;23733;53.254;10.430;2023-06-14T08:56:25;5.20;;;2.80;;
37895;SDS011;23733;53.254;10.430;2023-06-14T08:58:53;5.63;;;2.63;;
37895;SDS011;23733;53.254;10.430;2023-06-14T09:01:19;7.90;;;3.20;;
37895;SDS011;23733;53.254;10.430;2023-06-14T09:03:47;5.93;;;2.90;;
37895;SDS011;23733;53.254;10.430;2023-06-14T09:06:14;6.70;;;2.73;;
37895;SDS011;23733;53.254;10.430;2023-06-14T09:08:44;13.70;;;2.70;;
37895;SDS011;23733;53.254;10.430;2023-06-14T09:11:11;4.63;;;2.67;;
37895;SDS011;23733;53.254;10.430;2023-06-14T09:13:38;7.90;;;3.30;;
37895;SDS011;23733;53.254;10.430;2023-06-14T09:16:06;11.27;;;2.47;;
37895;SDS011;23733;53.254;10.430;2023-06-14T09:18:40;7.13;;;2.87;;
37895;SDS011;23733;53.254;10.430;2023-06-14T09:21:10;4.80;;;2.80;;
37895;SDS011;23733;53.254;10.430;2023-06-14T09:23:37;5.10;;;2.60;;
37895;SDS011;23733;53.254;10.430;2023-06-14T09:26:08;8.77;;;2.50;;
37895;SDS011;23733;53.254;10.430;2023-06-14T09:28:35;5.00;;;2.87;;
37895;SDS011;23733;53.254;10.430;2023-06-14T09:31:06;8.43;;;2.70;;
37895;SDS011;23733;53.254;10.430;2023-06-14T09:33:33;4.90;;;2.40;;
37895;SDS011;23733;53.254;10.430;2023-06-14T09:35:59;11.40;;;2.70;;
37895;SDS011;23733;53.254;10.430;2023-06-14T09:38:25;9.10;;;2.67;;
37895;SDS011;23733;53.254;10.430;2023-06-14T09:40:52;5.87;;;2.57;;
37895;SDS011;23733;53.254;10.430;2023-06-14T09:43:18;3.80;;;2.40;;
37895;SDS011;23733;53.254;10.430;2023-06-14T09:45:47;5.17;;;2.60;;
37895;SDS011;23733;53.254;10.430;2023-06-14T09:48:14;3.73;;;2.50;;
37895;SDS011;23733;53.254;10.430;2023-06-14T09:50:46;6.70;;;2.83;;
37895;SDS011;23733;53.254;10.430;2023-06-14T09:53:14;4.83;;;3.00;;
37895;SDS011;23733;53.254;10.430;2023-06-14T09:55:41;7.03;;;2.90;;
37895;SDS011;23733;53.254;10.430;2023-06-14T09:58:08;8.20;;;2.77;;
37895;SDS011;23733;53.254;10.430;2023-06-14T10:00:36;13.07;;;2.73;;
37895;SDS011;23733;53.254;10.430;2023-06-14T10:03:06;8.17;;;2.30;;
37895;SDS011;23733;53.254;10.430;2023-06-14T10:05:41;8.60;;;2.30;;
37895;SDS011;23733;53.254;10.430;2023-06-14T10:08:10;4.10;;;2.47;;
37895;SDS011;23733;53.254;10.430;2023-06-14T10:10:41;6.43;;;2.20;;
37895;SDS011;23733;53.254;10.430;2023-06-14T10:13:08;3.27;;;2.60;;
37895;SDS011;23733;53.254;10.430;2023-06-14T10:15:37;4.80;;;2.50;;
37895;SDS011;23733;53.254;10.430;2023-06-14T10:18:22;6.60;;;2.17;;
37895;SDS011;23733;53.254;10.430;2023-06-14T10:23:47;7.03;;;2.73;;
37895;SDS011;23733;53.254;10.430;2023-06-14T10:26:21;8.23;;;2.20;;
37895;SDS011;23733;53.254;10.430;2023-06-14T10:31:41;4.70;;;2.57;;
37895;SDS011;23733;53.254;10.430;2023-06-14T10:34:07;6.23;;;2.40;;
37895;SDS011;23733;53.254;10.430;2023-06-14T10:36:33;10.13;;;2.90;;
37895;SDS011;23733;53.254;10.430;2023-06-14T10:39:04;4.53;;;2.37;;
37895;SDS011;23733;53.254;10.430;2023-06-14T10:41:39;8.60;;;2.73;;
37895;SDS011;23733;53.254;10.430;2023-06-14T10:46:48;6.43;;;2.50;;
37895;SDS011;23733;53.254;10.430;2023-06-14T10:49:18;8.40;;;2.40;;
37895;SDS011;23733;53.254;10.430;2023-06-14T10:51:45;6.77;;;2.70;;
37895;SDS011;23733;53.254;10.430;2023-06-14T10:54:15;4.23;;;2.40;;
37895;SDS011;23733;53.254;10.430;2023-06-14T10:56:48;9.07;;;2.50;;
37895;SDS011;23733;53.254;10.430;2023-06-14T10:59:18;4.37;;;2.20;;
37895;SDS011;23733;53.254;10.430;2023-06-14T11:01:58;12.90;;;2.80;;
37895;SDS011;23733;53.254;10.430;2023-06-14T11:04:50;7.97;;;2.20;;
37895;SDS011;23733;53.254;10.430;2023-06-14T11:10:10;8.13;;;2.63;;
37895;SDS011;23733;53.254;10.430;2023-06-14T11:12:59;5.47;;;2.37;;
37895;SDS011;23733;53.254;10.430;2023-06-14T11:15:29;7.17;;;2.73;;
37895;SDS011;23733;53.254;10.430;2023-06-14T11:18:05;6.40;;;2.43;;
37895;SDS011;23733;53.254;10.430;2023-06-14T11:20:34;5.67;;;2.47;;
37895;SDS011;23733;53.254;10.430;2023-06-14T11:23:01;9.80;;;2.73;;
37895;SDS011;23733;53.254;10.430;2023-06-14T11:25:27;6.03;;;2.20;;
37895;SDS011;23733;53.254;10.430;2023-06-14T11:27:54;8.57;;;2.67;;
37895;SDS011;23733;53.254;10.430;2023-06-14T11:30:21;10.13;;;2.50;;
37895;SDS011;23733;53.254;10.430;2023-06-14T11:32:48;7.93;;;2.57;;
37895;SDS011;23733;53.254;10.430;2023-06-14T11:35:16;5.47;;;2.43;;
37895;SDS011;23733;53.254;10.430;2023-06-14T11:37:42;7.30;;;2.23;;
37895;SDS011;23733;53.254;10.430;2023-06-14T11:40:10;4.60;;;2.40;;
37895;SDS011;23733;53.254;10.430;2023-06-14T11:42:37;12.87;;;2.60;;
37895;SDS011;23733;53.254;10.430;2023-06-14T11:45:08;10.70;;;2.40;;
37895;SDS011;23733;53.254;10.430;2023-06-14T11:47:35;6.27;;;2.30;;
37895;SDS011;23733;53.254;10.430;2023-06-14T11:50:03;6.20;;;2.43;;
37895;SDS011;23733;53.254;10.430;2023-06-14T11:52:31;6.80;;;2.57;;
37895;SDS011;23733;53.254;10.430;2023-06-14T11:54:57;8.73;;;2.87;;
37895;SDS011;23733;53.254;10.430;2023-06-14T11:57:24;4.00;;;2.50;;
37895;SDS011;23733;53.254;10.430;2023-06-14T11:59:50;6.70;;;2.40;;
37895;SDS011;23733;53.254;10.430;2023-06-14T12:02:17;5.60;;;2.50;;
37895;SDS011;23733;53.254;10.430;2023-06-14T12:04:46;8.53;;;2.40;;
37895;SDS011;23733;53.254;10.430;2023-06-14T12:07:14;3.03;;;2.27;;
37895;SDS011;23733;53.254;10.430;2023-06-14T12:09:43;5.63;;;2.50;;
37895;SDS011;23733;53.254;10.430;2023-06-14T12:12:36;4.97;;;1.93;;
37895;SDS011;23733;53.254;10.430;2023-06-14T12:15:04;6.10;;;2.10;;
37895;SDS011;23733;53.254;10.430;2023-06-14T12:17:35;10.37;;;2.30;;
37895;SDS011;23733;53.254;10.430;2023-06-14T12:20:08;4.33;;;2.37;;
37895;SDS011;23733;53.254;10.430;2023-06-14T12:22:54;8.37;;;2.43;;
37895;SDS011;23733;53.254;10.430;2023-06-14T12:25:31;7.37;;;2.40;;
37895;SDS011;23733;53.254;10.430;2023-06-14T12:27:59;5.77;;;2.60;;
37895;SDS011;23733;53.254;10.430;2023-06-14T12:30:35;13.10;;;2.80;;
37895;SDS011;23733;53.254;10.430;2023-06-14T12:33:05;8.70;;;2.30;;
37895;SDS011;23733;53.254;10.430;2023-06-14T12:35:31;4.87;;;2.60;;
37895;SDS011;23733;53.254;10.430;2023-06-14T12:37:57;6.67;;;2.27;;
37895;SDS011;23733;53.254;10.430;2023-06-14T12:40:23;9.67;;;2.43;;
37895;SDS011;23733;53.254;10.430;2023-06-14T12:42:49;6.50;;;2.33;;
37895;SDS011;23733;53.254;10.430;2023-06-14T12:45:15;6.43;;;2.20;;
37895;SDS011;23733;53.254;10.430;2023-06-14T12:47:41;7.23;;;2.43;;
37895;SDS011;23733;53.254;10.430;2023-06-14T12:50:08;6.90;;;2.40;;
37895;SDS011;23733;53.254;10.430;2023-06-14T12:52:34;10.67;;;2.40;;
37895;SDS011;23733;53.254;10.430;2023-06-14T12:55:05;6.40;;;2.33;;
37895;SDS011;23733;53.254;10.430;2023-06-14T12:57:32;13.93;;;2.30;;
37895;SDS011;23733;53.254;10.430;2023-06-14T12:59:59;5.90;;;2.17;;
37895;SDS011;23733;53.254;10.430;2023-06-14T13:02:25;3.73;;;2.23;;
37895;SDS011;23733;53.254;10.430;2023-06-14T13:04:52;8.80;;;2.07;;
37895;SDS011;23733;53.254;10.430;2023-06-14T13:07:18;6.20;;;2.00;;
37895;SDS011;23733;53.254;10.430;2023-06-14T13:09:44;5.47;;;2.20;;
37895;SDS011;23733;53.254;10.430;2023-06-14T13:12:10;4.90;;;2.00;;
37895;SDS011;23733;53.254;10.430;2023-06-14T13:14:40;10.80;;;2.60;;
37895;SDS011;23733;53.254;10.430;2023-06-14T13:17:09;9.77;;;2.23;;
37895;SDS011;23733;53.254;10.430;2023-06-14T13:19:36;5.97;;;2.03;;
37895;SDS011;23733;53.254;10.430;2023-06-14T13:22:02;4.87;;;2.10;;
37895;SDS011;23733;53.254;10.430;2023-06-14T13:24:29;3.60;;;2.10;;
37895;SDS011;23733;53.254;10.430;2023-06-14T13:26:55;6.47;;;2.40;;
37895;SDS011;23733;53.254;10.430;2023-06-14T13:29:22;3.83;;;2.20;;
37895;SDS011;23733;53.254;10.430;2023-06-14T13:31:49;7.97;;;2.20;;
37895;SDS011;23733;53.254;10.430;2023-06-14T13:34:15;3.87;;;2.13;;
37895;SDS011;23733;53.254;10.430;2023-06-14T13:36:41;5.73;;;2.20;;
37895;SDS011;23733;53.254;10.430;2023-06-14T13:39:07;4.00;;;1.80;;
37895;SDS011;23733;53.254;10.430;2023-06-14T13:41:33;5.30;;;2.30;;
37895;SDS011;23733;53.254;10.430;2023-06-14T13:44:00;8.50;;;2.30;;
37895;SDS011;23733;53.254;10.430;2023-06-14T13:46:29;3.90;;;2.03;;
37895;SDS011;23733;53.254;10.430;2023-06-14T13:48:55;8.40;;;2.13;;
37895;SDS011;23733;53.254;10.430;2023-06-14T13:51:22;6.07;;;2.37;;
37895;SDS011;23733;53.254;10.430;2023-06-14T13:53:49;2.93;;;2.17;;
37895;SDS011;23733;53.254;10.430;2023-06-14T13:56:16;5.90;;;1.93;;
37895;SDS011;23733;53.254;10.430;2023-06-14T13:58:42;4.27;;;2.30;;
37895;SDS011;23733;53.254;10.430;2023-06-14T14:01:09;8.47;;;2.57;;
37895;SDS011;23733;53.254;10.430;2023-06-14T14:03:35;9.03;;;2.33;;
37895;SDS011;23733;53.254;10.430;2023-06-14T14:06:04;6.70;;;2.37;;
37895;SDS011;23733;53.254;10.430;2023-06-14T14:08:31;10.60;;;2.53;;
37895;SDS011;23733;53.254;10.430;2023-06-14T14:10:58;8.50;;;2.37;;
37895;SDS011;23733;53.254;10.430;2023-06-14T14:13:24;4.97;;;2.10;;
37895;SDS011;23733;53.254;10.430;2023-06-14T14:15:50;6.00;;;2.63;;
37895;SDS011;23733;53.254;10.430;2023-06-14T14:18:16;5.70;;;2.30;;
37895;SDS011;23733;53.254;10.430;2023-06-14T14:20:42;6.17;;;2.47;;
37895;SDS011;23733;53.254;10.430;2023-06-14T14:23:08;5.43;;;2.00;;
37895;SDS011;23733;53.254;10.430;2023-06-14T14:25:35;5.43;;;2.10;;
37895;SDS011;23733;53.254;10.430;2023-06-14T14:28:01;5.30;;;2.20;;
37895;SDS011;23733;53.254;10.430;2023-06-14T14:30:27;6.97;;;2.20;;
37895;SDS011;23733;53.254;10.430;2023-06-14T14:32:53;7.00;;;2.50;;
37895;SDS011;23733;53.254;10.430;2023-06-14T14:35:19;5.17;;;2.30;;
37895;SDS011;23733;53.254;10.430;2023-06-14T14:37:45;5.67;;;2.50;;
37895;SDS011;23733;53.254;10.430;2023-06-14T14:40:11;4.50;;;2.50;;
37895;SDS011;23733;53.254;10.430;2023-06-14T14:42:37;5.77;;;2.23;;
37895;SDS011;23733;53.254;10.430;2023-06-14T14:45:04;7.73;;;2.33;;
37895;SDS011;23733;53.254;10.430;2023-06-14T14:47:30;3.27;;;2.30;;
37895;SDS011;23733;53.254;10.430;2023-06-14T14:49:56;5.90;;;2.47;;
37895;SDS011;23733;53.254;10.430;2023-06-14T14:52:22;8.33;;;2.63;;